sensor_id;sensor_type;location;lat;lon;timestamp;pressure;altitude;pressure_sealevel;temperature;humidity
13407;BME280;6774;48.208;10.766;2023-05-20T00:01:17;95559.81;;;14.72;78.70
13407;BME280;6774;48.208;10.766;2023-05-20T00:03:45;95554.50;;;14.72;78.86
13407;BME280;6774;48.208;10.766;2023-05-20T00:06:15;95554.50;;;14.72;78.95
13407;BME280;6774;48.208;10.766;2023-05-20T00:08:42;95550.22;;;14.71;78.91
13407;BME280;6774;48.208;10.766;2023-05-20T00:11:10;95549.19;;;14.72;79.04
13407;BME280;6774;48.208;10.766;2023-05-20T00:13:38;95548.38;;;14.71;79.05
13407;BME280;6774;48.208;10.766;2023-05-20T00:16:06;95547.38;;;14.72;78.96
13407;BME280;6774;48.208;10.766;2023-05-20T00:18:34;95552.47;;;14.74;79.36
13407;BME280;6774;48.208;10.766;2023-05-20T00:21:01;95548.78;;;14.75;79.29
13407;BME280;6774;48.208;10.766;2023-05-20T00:23:30;95545.09;;;14.76;79.58
13407;BME280;6774;48.208;10.766;2023-05-20T00:25:58;95550.41;;;14.76;79.63
13407;BME280;6774;48.208;10.766;2023-05-20T00:28:26;95547.31;;;14.79;79.53
13407;BME280;6774;48.208;10.766;2023-05-20T00:30:54;95543.25;;;14.76;79.47
13407;BME280;6774;48.208;10.766;2023-05-20T00:33:22;95544.88;;;14.77;79.56
13407;BME280;6774;48.208;10.766;2023-05-20T00:35:49;95543.47;;;14.75;79.62
13407;BME280;6774;48.208;10.766;2023-05-20T00:38:17;95538.16;;;14.75;79.55
13407;BME280;6774;48.208;10.766;2023-05-20T00:40:47;95529.16;;;14.76;79.46
13407;BME280;6774;48.208;10.766;2023-05-20T00:43:15;95537.72;;;14.78;79.71
13407;BME280;6774;48.208;10.766;2023-05-20T00:45:42;95525.03;;;14.80;79.55
13407;BME280;6774;48.208;10.766;2023-05-20T00:48:10;95534.03;;;14.79;79.59
13407;BME280;6774;48.208;10.766;2023-05-20T00:50:39;95527.09;;;14.78;79.64
13407;BME280;6774;48.208;10.766;2023-05-20T00:53:07;95532.41;;;14.78;79.66
13407;BME280;6774;48.208;10.766;2023-05-20T00:55:35;95532.41;;;14.78;79.61
13407;BME280;6774;48.208;10.766;2023-05-20T00:58:05;95536.53;;;14.74;79.47
13407;BME280;6774;48.208;10.766;2023-05-20T01:00:33;95519.16;;;14.71;79.56
13407;BME280;6774;48.208;10.766;2023-05-20T01:03:01;95523.06;;;14.69;79.70
13407;BME280;6774;48.208;10.766;2023-05-20T01:05:29;95527.56;;;14.68;79.83
13407;BME280;6774;48.208;10.766;2023-05-20T01:07:57;95530.84;;;14.64;79.95
13407;BME280;6774;48.208;10.766;2023-05-20T01:10:27;95523.69;;;14.64;80.04
13407;BME280;6774;48.208;10.766;2023-05-20T01:12:57;95510.00;;;14.61;80.16
13407;BME280;6774;48.208;10.766;2023-05-20T01:15:30;95512.06;;;14.59;79.97
13407;BME280;6774;48.208;10.766;2023-05-20T01:18:00;95514.13;;;14.57;80.08
13407;BME280;6774;48.208;10.766;2023-05-20T01:20:31;95514.13;;;14.57;80.15
13407;BME280;6774;48.208;10.766;2023-05-20T01:23:02;95521.06;;;14.58;80.18
13407;BME280;6774;48.208;10.766;2023-05-20T01:25:30;95508.81;;;14.57;80.31
13407;BME280;6774;48.208;10.766;2023-05-20T01:27:57;95516.19;;;14.55;80.24
13407;BME280;6774;48.208;10.766;2023-05-20T01:30:28;95514.94;;;14.57;80.28
13407;BME280;6774;48.208;10.766;2023-05-20T01:33:04;95505.13;;;14.58;80.35
13407;BME280;6774;48.208;10.766;2023-05-20T01:35:34;95513.91;;;14.58;80.39
13407;BME280;6774;48.208;10.766;2023-05-20T01:38:04;95517.59;;;14.57;80.60
13407;BME280;6774;48.208;10.766;2023-05-20T01:40:33;95526.38;;;14.58;80.61
13407;BME280;6774;48.208;10.766;2023-05-20T01:43:02;95516.56;;;14.58;80.83
13407;BME280;6774;48.208;10.766;2023-05-20T01:45:30;95523.50;;;14.59;80.70
13407;BME280;6774;48.208;10.766;2023-05-20T01:47:58;95514.50;;;14.60;80.70
13407;BME280;6774;48.208;10.766;2023-05-20T01:50:27;95514.94;;;14.57;80.76
13407;BME280;6774;48.208;10.766;2023-05-20T01:52:54;95515.38;;;14.54;80.86
13407;BME280;6774;48.208;10.766;2023-05-20T01:55:24;95508.22;;;14.55;80.88
13407;BME280;6774;48.208;10.766;2023-05-20T01:57:53;95508.63;;;14.51;80.69
13407;BME280;6774;48.208;10.766;2023-05-20T02:00:21;95512.91;;;14.52;80.77
13407;BME280;6774;48.208;10.766;2023-05-20T02:02:49;95496.16;;;14.52;80.75
13407;BME280;6774;48.208;10.766;2023-05-20T02:05:17;95505.75;;;14.53;80.79
13407;BME280;6774;48.208;10.766;2023-05-20T02:07:45;95506.38;;;14.55;80.74
13407;BME280;6774;48.208;10.766;2023-05-20T02:10:13;95506.38;;;14.55;80.82
13407;BME280;6774;48.208;10.766;2023-05-20T02:12:42;95505.38;;;14.49;80.84
13407;BME280;6774;48.208;10.766;2023-05-20T02:15:10;95505.97;;;14.51;80.73
13407;BME280;6774;48.208;10.766;2023-05-20T02:17:40;95500.06;;;14.49;80.88
13407;BME280;6774;48.208;10.766;2023-05-20T02:20:09;95500.28;;;14.48;80.93
13407;BME280;6774;48.208;10.766;2023-05-20T02:22:37;95497.84;;;14.46;80.82
13407;BME280;6774;48.208;10.766;2023-05-20T02:25:06;95494.53;;;14.44;80.80
13407;BME280;6774;48.208;10.766;2023-05-20T02:27:35;95505.38;;;14.43;81.02
13407;BME280;6774;48.208;10.766;2023-05-20T02:30:05;95499.69;;;14.39;80.92
13407;BME280;6774;48.208;10.766;2023-05-20T02:32:34;95495.41;;;14.38;81.21
13407;BME280;6774;48.208;10.766;2023-05-20T02:35:01;95496.66;;;14.36;81.29
13407;BME280;6774;48.208;10.766;2023-05-20T02:37:29;95492.97;;;14.30;81.29
13407;BME280;6774;48.208;10.766;2023-05-20T02:39:57;95494.22;;;14.28;81.47
13407;BME280;6774;48.208;10.766;2023-05-20T02:42:25;95501.78;;;14.24;81.47
13407;BME280;6774;48.208;10.766;2023-05-20T02:44:52;95504.44;;;14.24;81.69
13407;BME280;6774;48.208;10.766;2023-05-20T02:47:25;95496.69;;;14.22;81.80
13407;BME280;6774;48.208;10.766;2023-05-20T02:49:53;95495.44;;;14.25;81.66
13407;BME280;6774;48.208;10.766;2023-05-20T02:52:21;95495.44;;;14.25;81.66
13407;BME280;6774;48.208;10.766;2023-05-20T02:54:49;95497.69;;;14.28;81.46
13407;BME280;6774;48.208;10.766;2023-05-20T02:57:18;95495.44;;;14.25;81.61
13407;BME280;6774;48.208;10.766;2023-05-20T02:59:46;95502.81;;;14.23;81.85
13407;BME280;6774;48.208;10.766;2023-05-20T03:02:13;95508.13;;;14.23;81.68
13407;BME280;6774;48.208;10.766;2023-05-20T03:04:43;95505.88;;;14.20;81.65
13407;BME280;6774;48.208;10.766;2023-05-20T03:07:12;95511.19;;;14.20;81.77
13407;BME280;6774;48.208;10.766;2023-05-20T03:09:43;95511.19;;;14.20;81.65
13407;BME280;6774;48.208;10.766;2023-05-20T03:12:10;95517.31;;;14.20;81.78
13407;BME280;6774;48.208;10.766;2023-05-20T03:14:38;95517.53;;;14.19;81.51
13407;BME280;6774;48.208;10.766;2023-05-20T03:17:07;95508.53;;;14.20;81.73
13407;BME280;6774;48.208;10.766;2023-05-20T03:19:34;95521.81;;;14.20;81.77
13407;BME280;6774;48.208;10.766;2023-05-20T03:22:04;95518.13;;;14.21;81.69
13407;BME280;6774;48.208;10.766;2023-05-20T03:24:33;95508.13;;;14.23;81.92
13407;BME280;6774;48.208;10.766;2023-05-20T03:27:01;95502.59;;;14.24;81.93
13407;BME280;6774;48.208;10.766;2023-05-20T03:29:29;95499.97;;;14.18;82.06
13407;BME280;6774;48.208;10.766;2023-05-20T03:31:56;95485.25;;;14.22;81.93
13407;BME280;6774;48.208;10.766;2023-05-20T03:34:24;95492.63;;;14.20;82.21
13407;BME280;6774;48.208;10.766;2023-05-20T03:36:53;95486.72;;;14.18;82.26
13407;BME280;6774;48.208;10.766;2023-05-20T03:39:24;95494.03;;;14.16;82.66
13407;BME280;6774;48.208;10.766;2023-05-20T03:41:52;95502.00;;;14.16;82.35
13407;BME280;6774;48.208;10.766;2023-05-20T03:44:19;95499.34;;;14.16;82.86
13407;BME280;6774;48.208;10.766;2023-05-20T03:46:47;95507.31;;;14.16;82.51
13407;BME280;6774;48.208;10.766;2023-05-20T03:49:15;95516.31;;;14.15;82.55
13407;BME280;6774;48.208;10.766;2023-05-20T03:51:43;95502.44;;;14.13;82.77
13407;BME280;6774;48.208;10.766;2023-05-20T03:54:12;95503.03;;;14.15;82.56
13407;BME280;6774;48.208;10.766;2023-05-20T03:56:47;95499.75;;;14.19;82.78
13407;BME280;6774;48.208;10.766;2023-05-20T03:59:15;95491.00;;;14.19;82.94
13407;BME280;6774;48.208;10.766;2023-05-20T04:01:44;95500.78;;;14.18;82.93
13407;BME280;6774;48.208;10.766;2023-05-20T04:04:12;95499.56;;;14.21;82.93
13407;BME280;6774;48.208;10.766;2023-05-20T04:06:40;95488.72;;;14.22;83.01
13407;BME280;6774;48.208;10.766;2023-05-20T04:09:08;95481.19;;;14.19;82.89
13407;BME280;6774;48.208;10.766;2023-05-20T04:11:36;95487.31;;;14.20;82.90
13407;BME280;6774;48.208;10.766;2023-05-20T04:14:05;95484.06;;;14.18;83.10
13407;BME280;6774;48.208;10.766;2023-05-20T04:16:33;95489.75;;;14.21;83.03
13407;BME280;6774;48.208;10.766;2023-05-20T04:19:03;95477.72;;;14.19;82.88
13407;BME280;6774;48.208;10.766;2023-05-20T04:21:31;95485.31;;;14.09;83.25
13407;BME280;6774;48.208;10.766;2023-05-20T04:23:58;95490.63;;;14.09;83.13
13407;BME280;6774;48.208;10.766;2023-05-20T04:26:26;95488.97;;;14.08;83.25
13407;BME280;6774;48.208;10.766;2023-05-20T04:28:54;95492.84;;;14.12;83.43
13407;BME280;6774;48.208;10.766;2023-05-20T04:31:26;95493.03;;;14.17;83.38
13407;BME280;6774;48.208;10.766;2023-05-20T04:33:54;95493.88;;;14.11;83.47
13407;BME280;6774;48.208;10.766;2023-05-20T04:36:22;95485.50;;;14.14;83.59
13407;BME280;6774;48.208;10.766;2023-05-20T04:38:54;95493.03;;;14.17;83.57
13407;BME280;6774;48.208;10.766;2023-05-20T04:41:22;95489.38;;;14.18;83.50
13407;BME280;6774;48.208;10.766;2023-05-20T04:43:50;95492.03;;;14.18;83.79
13407;BME280;6774;48.208;10.766;2023-05-20T04:46:19;95500.16;;;14.16;83.75
13407;BME280;6774;48.208;10.766;2023-05-20T04:48:48;95486.09;;;14.16;83.89
13407;BME280;6774;48.208;10.766;2023-05-20T04:51:16;95489.38;;;14.18;83.80
13407;BME280;6774;48.208;10.766;2023-05-20T04:53:44;95486.28;;;14.21;83.67
13407;BME280;6774;48.208;10.766;2023-05-20T04:56:11;95490.13;;;14.25;83.92
13407;BME280;6774;48.208;10.766;2023-05-20T04:58:41;95489.53;;;14.23;83.93
13407;BME280;6774;48.208;10.766;2023-05-20T05:01:09;95494.84;;;14.16;84.06
13407;BME280;6774;48.208;10.766;2023-05-20T05:03:37;95494.69;;;14.18;84.21
13407;BME280;6774;48.208;10.766;2023-05-20T05:06:06;95485.25;;;14.22;84.15
13407;BME280;6774;48.208;10.766;2023-05-20T05:08:34;95495.50;;;14.18;84.25
13407;BME280;6774;48.208;10.766;2023-05-20T05:11:04;95494.69;;;14.18;84.15
13407;BME280;6774;48.208;10.766;2023-05-20T05:13:32;95498.31;;;14.17;84.14
13407;BME280;6774;48.208;10.766;2023-05-20T05:16:00;95491.41;;;14.16;84.54
13407;BME280;6774;48.208;10.766;2023-05-20T05:18:30;95491.59;;;14.21;84.30
13407;BME280;6774;48.208;10.766;2023-05-20T05:20:59;95490.13;;;14.25;84.43
13407;BME280;6774;48.208;10.766;2023-05-20T05:23:29;95478.69;;;14.31;84.33
13407;BME280;6774;48.208;10.766;2023-05-20T05:25:58;95480.72;;;14.36;84.36
13407;BME280;6774;48.208;10.766;2023-05-20T05:28:26;95475.78;;;14.39;84.19
13407;BME280;6774;48.208;10.766;2023-05-20T05:30:54;95477.50;;;14.27;84.24
13407;BME280;6774;48.208;10.766;2023-05-20T05:33:22;95478.66;;;14.38;84.03
13407;BME280;6774;48.208;10.766;2023-05-20T05:35:50;95478.66;;;14.38;84.18
13407;BME280;6774;48.208;10.766;2023-05-20T05:38:18;95479.03;;;14.41;84.04
13407;BME280;6774;48.208;10.766;2023-05-20T05:40:47;95482.72;;;14.40;83.97
13407;BME280;6774;48.208;10.766;2023-05-20T05:43:15;95483.16;;;14.37;84.18
13407;BME280;6774;48.208;10.766;2023-05-20T05:45:46;95484.78;;;14.38;84.00
13407;BME280;6774;48.208;10.766;2023-05-20T05:48:14;95486.41;;;14.39;83.89
13407;BME280;6774;48.208;10.766;2023-05-20T05:50:43;95490.09;;;14.32;84.03
13407;BME280;6774;48.208;10.766;2023-05-20T05:53:14;95490.09;;;14.32;84.25
13407;BME280;6774;48.208;10.766;2023-05-20T05:55:45;95486.84;;;14.30;84.34
13407;BME280;6774;48.208;10.766;2023-05-20T05:58:15;95490.72;;;14.34;84.47
13407;BME280;6774;48.208;10.766;2023-05-20T06:00:43;95485.63;;;14.32;84.65
13407;BME280;6774;48.208;10.766;2023-05-20T06:03:11;95486.84;;;14.36;84.78
13407;BME280;6774;48.208;10.766;2023-05-20T06:05:39;95494.53;;;14.44;84.66
13407;BME280;6774;48.208;10.766;2023-05-20T06:08:06;95489.00;;;14.52;84.68
13407;BME280;6774;48.208;10.766;2023-05-20T06:10:35;95487.16;;;14.60;84.84
13407;BME280;6774;48.208;10.766;2023-05-20T06:13:03;95488.53;;;14.69;84.78
13407;BME280;6774;48.208;10.766;2023-05-20T06:15:33;95488.94;;;14.72;84.56
13407;BME280;6774;48.208;10.766;2023-05-20T06:18:02;95488.28;;;14.77;84.32
13407;BME280;6774;48.208;10.766;2023-05-20T06:20:31;95495.63;;;14.82;84.36
13407;BME280;6774;48.208;10.766;2023-05-20T06:23:01;95495.41;;;14.83;84.21
13407;BME280;6774;48.208;10.766;2023-05-20T06:25:41;95495.22;;;14.78;84.34
13407;BME280;6774;48.208;10.766;2023-05-20T06:28:09;95496.44;;;14.82;84.52
13407;BME280;6774;48.208;10.766;2023-05-20T06:30:40;95497.94;;;14.96;84.28
13407;BME280;6774;48.208;10.766;2023-05-20T06:33:08;95491.78;;;15.02;84.14
13407;BME280;6774;48.208;10.766;2023-05-20T06:35:37;95484.38;;;15.11;83.86
13407;BME280;6774;48.208;10.766;2023-05-20T06:38:04;95483.91;;;15.14;83.16
13407;BME280;6774;48.208;10.766;2023-05-20T06:40:32;95474.97;;;15.08;82.75
13407;BME280;6774;48.208;10.766;2023-05-20T06:43:00;95472.34;;;15.27;82.69
13407;BME280;6774;48.208;10.766;2023-05-20T06:45:48;95480.69;;;15.37;82.13
13407;BME280;6774;48.208;10.766;2023-05-20T06:48:21;95478.75;;;15.44;81.34
13407;BME280;6774;48.208;10.766;2023-05-20T06:50:49;95484.88;;;15.45;81.23
13407;BME280;6774;48.208;10.766;2023-05-20T06:53:17;95476.72;;;15.46;80.89
13407;BME280;6774;48.208;10.766;2023-05-20T06:55:45;95483.66;;;15.47;80.55
13407;BME280;6774;48.208;10.766;2023-05-20T06:58:13;95480.25;;;15.40;80.43
13407;BME280;6774;48.208;10.766;2023-05-20T07:00:42;95482.09;;;15.40;80.41
13407;BME280;6774;48.208;10.766;2023-05-20T07:03:11;95472.34;;;15.52;80.38
13407;BME280;6774;48.208;10.766;2023-05-20T07:05:39;95473.34;;;15.57;80.55
13407;BME280;6774;48.208;10.766;2023-05-20T07:08:08;95474.53;;;15.61;80.68
13407;BME280;6774;48.208;10.766;2023-05-20T07:10:37;95473.75;;;15.54;80.02
13407;BME280;6774;48.208;10.766;2023-05-20T07:13:05;95469.63;;;15.58;80.27
13407;BME280;6774;48.208;10.766;2023-05-20T07:15:32;95465.19;;;15.52;79.96
13407;BME280;6774;48.208;10.766;2023-05-20T07:18:00;95459.09;;;15.45;80.16
13407;BME280;6774;48.208;10.766;2023-05-20T07:20:30;95465.00;;;15.29;80.08
13407;BME280;6774;48.208;10.766;2023-05-20T07:23:02;95469.75;;;15.45;80.37
13407;BME280;6774;48.208;10.766;2023-05-20T07:25:36;95462.00;;;15.44;79.90
13407;BME280;6774;48.208;10.766;2023-05-20T07:28:05;95467.25;;;15.50;79.97
13407;BME280;6774;48.208;10.766;2023-05-20T07:30:34;95455.75;;;15.56;80.13
13407;BME280;6774;48.208;10.766;2023-05-20T07:33:13;95463.72;;;15.56;79.26
13407;BME280;6774;48.208;10.766;2023-05-20T07:35:45;95459.50;;;15.74;79.17
13407;BME280;6774;48.208;10.766;2023-05-20T07:38:12;95452.97;;;15.88;78.95
13407;BME280;6774;48.208;10.766;2023-05-20T07:40:42;95451.66;;;15.97;78.70
13407;BME280;6774;48.208;10.766;2023-05-20T07:43:10;95451.72;;;16.09;78.35
13407;BME280;6774;48.208;10.766;2023-05-20T07:45:38;95452.22;;;16.17;77.53
13407;BME280;6774;48.208;10.766;2023-05-20T07:48:06;95448.56;;;16.18;76.47
13407;BME280;6774;48.208;10.766;2023-05-20T07:50:35;95452.59;;;16.21;75.83
13407;BME280;6774;48.208;10.766;2023-05-20T07:53:04;95448.22;;;16.27;75.90
13407;BME280;6774;48.208;10.766;2023-05-20T07:55:33;95445.13;;;16.30;75.06
13407;BME280;6774;48.208;10.766;2023-05-20T07:58:03;95446.56;;;16.44;75.83
13407;BME280;6774;48.208;10.766;2023-05-20T08:00:33;95439.78;;;16.60;76.00
13407;BME280;6774;48.208;10.766;2023-05-20T08:03:04;95436.19;;;16.54;76.16
13407;BME280;6774;48.208;10.766;2023-05-20T08:06:06;95431.94;;;16.95;75.17
13407;BME280;6774;48.208;10.766;2023-05-20T08:08:35;95430.56;;;17.04;73.63
13407;BME280;6774;48.208;10.766;2023-05-20T08:11:12;95431.59;;;17.15;72.88
13407;BME280;6774;48.208;10.766;2023-05-20T08:13:40;95430.31;;;17.17;73.09
13407;BME280;6774;48.208;10.766;2023-05-20T08:16:08;95437.41;;;17.23;72.79
13407;BME280;6774;48.208;10.766;2023-05-20T08:18:36;95445.84;;;16.97;73.17
13407;BME280;6774;48.208;10.766;2023-05-20T08:21:04;95446.19;;;17.00;73.42
13407;BME280;6774;48.208;10.766;2023-05-20T08:23:33;95442.84;;;17.05;73.97
13407;BME280;6774;48.208;10.766;2023-05-20T08:26:07;95443.31;;;17.25;73.79
13407;BME280;6774;48.208;10.766;2023-05-20T08:28:38;95447.66;;;17.38;72.90
13407;BME280;6774;48.208;10.766;2023-05-20T08:31:06;95451.00;;;17.33;71.84
13407;BME280;6774;48.208;10.766;2023-05-20T08:33:35;95438.72;;;17.56;71.73
13407;BME280;6774;48.208;10.766;2023-05-20T08:36:04;95445.78;;;17.50;71.32
13407;BME280;6774;48.208;10.766;2023-05-20T08:38:32;95449.72;;;17.36;71.95
13407;BME280;6774;48.208;10.766;2023-05-20T08:40:59;95445.44;;;17.47;72.05
13407;BME280;6774;48.208;10.766;2023-05-20T08:43:31;95453.19;;;17.60;71.45
13407;BME280;6774;48.208;10.766;2023-05-20T08:46:01;95458.44;;;17.78;72.46
13407;BME280;6774;48.208;10.766;2023-05-20T08:48:34;95449.63;;;17.66;70.13
13407;BME280;6774;48.208;10.766;2023-05-20T08:51:02;95450.56;;;17.83;70.09
13407;BME280;6774;48.208;10.766;2023-05-20T08:53:30;95451.72;;;18.28;70.54
13407;BME280;6774;48.208;10.766;2023-05-20T08:55:59;95443.94;;;18.26;68.18
13407;BME280;6774;48.208;10.766;2023-05-20T08:58:31;95448.69;;;18.36;68.34
13407;BME280;6774;48.208;10.766;2023-05-20T09:00:59;95447.31;;;18.62;68.45
13407;BME280;6774;48.208;10.766;2023-05-20T09:03:27;95444.25;;;18.98;67.92
13407;BME280;6774;48.208;10.766;2023-05-20T09:06:03;95444.19;;;19.27;67.67
13407;BME280;6774;48.208;10.766;2023-05-20T09:08:31;95445.50;;;19.58;65.59
13407;BME280;6774;48.208;10.766;2023-05-20T09:11:00;95442.72;;;20.08;65.69
13407;BME280;6774;48.208;10.766;2023-05-20T09:13:30;95435.88;;;20.39;64.12
13407;BME280;6774;48.208;10.766;2023-05-20T09:15:59;95431.56;;;20.60;62.74
13407;BME280;6774;48.208;10.766;2023-05-20T09:18:28;95431.78;;;20.81;62.08
13407;BME280;6774;48.208;10.766;2023-05-20T09:20:56;95422.44;;;21.15;62.89
13407;BME280;6774;48.208;10.766;2023-05-20T09:23:24;95420.19;;;21.34;61.46
13407;BME280;6774;48.208;10.766;2023-05-20T09:25:53;95414.34;;;21.84;61.06
13407;BME280;6774;48.208;10.766;2023-05-20T09:28:22;95413.34;;;22.01;60.87
13407;BME280;6774;48.208;10.766;2023-05-20T09:30:57;95414.16;;;22.01;59.37
13407;BME280;6774;48.208;10.766;2023-05-20T09:33:27;95413.66;;;22.04;59.84
13407;BME280;6774;48.208;10.766;2023-05-20T09:36:05;95411.19;;;22.03;59.73
13407;BME280;6774;48.208;10.766;2023-05-20T09:38:37;95414.41;;;22.00;60.18
13407;BME280;6774;48.208;10.766;2023-05-20T09:41:06;95403.50;;;22.22;61.25
13407;BME280;6774;48.208;10.766;2023-05-20T09:43:35;95407.00;;;22.17;59.29
13407;BME280;6774;48.208;10.766;2023-05-20T09:46:04;95401.31;;;22.08;60.00
13407;BME280;6774;48.208;10.766;2023-05-20T09:48:34;95396.84;;;22.39;59.84
13407;BME280;6774;48.208;10.766;2023-05-20T09:51:03;95389.66;;;22.50;59.61
13407;BME280;6774;48.208;10.766;2023-05-20T09:53:31;95407.69;;;22.65;59.11
13407;BME280;6774;48.208;10.766;2023-05-20T09:55:59;95405.56;;;22.82;58.87
13407;BME280;6774;48.208;10.766;2023-05-20T09:58:28;95400.78;;;23.05;59.90
13407;BME280;6774;48.208;10.766;2023-05-20T10:00:56;95406.16;;;23.35;59.48
13407;BME280;6774;48.208;10.766;2023-05-20T10:03:25;95396.47;;;23.19;57.39
13407;BME280;6774;48.208;10.766;2023-05-20T10:06:04;95396.13;;;22.64;57.85
13407;BME280;6774;48.208;10.766;2023-05-20T10:08:48;95398.25;;;22.57;57.87
13407;BME280;6774;48.208;10.766;2023-05-20T10:11:29;95396.47;;;22.93;59.16
13407;BME280;6774;48.208;10.766;2023-05-20T10:14:19;95386.78;;;23.33;57.78
13407;BME280;6774;48.208;10.766;2023-05-20T10:16:51;95391.63;;;23.36;56.76
13407;BME280;6774;48.208;10.766;2023-05-20T10:19:26;95389.47;;;23.33;57.29
13407;BME280;6774;48.208;10.766;2023-05-20T10:21:57;95394.84;;;23.43;57.56
13407;BME280;6774;48.208;10.766;2023-05-20T10:24:29;95390.00;;;23.50;56.79
13407;BME280;6774;48.208;10.766;2023-05-20T10:27:00;95392.94;;;23.74;56.85
13407;BME280;6774;48.208;10.766;2023-05-20T10:29:29;95390.81;;;23.71;56.30
13407;BME280;6774;48.208;10.766;2023-05-20T10:31:57;95394.84;;;23.69;55.71
13407;BME280;6774;48.208;10.766;2023-05-20T10:34:26;95378.94;;;23.77;55.74
13407;BME280;6774;48.208;10.766;2023-05-20T10:36:57;95367.88;;;23.79;56.33
13407;BME280;6774;48.208;10.766;2023-05-20T10:39:26;95370.25;;;23.91;55.62
13407;BME280;6774;48.208;10.766;2023-05-20T10:42:05;95366.19;;;23.98;55.81
13407;BME280;6774;48.208;10.766;2023-05-20T10:44:42;95362.97;;;23.91;54.06
13407;BME280;6774;48.208;10.766;2023-05-20T10:47:10;95361.75;;;24.23;53.72
13407;BME280;6774;48.208;10.766;2023-05-20T10:49:45;95350.34;;;24.46;53.52
13407;BME280;6774;48.208;10.766;2023-05-20T10:52:13;95351.47;;;24.40;54.02
13407;BME280;6774;48.208;10.766;2023-05-20T10:54:45;95365.00;;;24.35;53.83
13407;BME280;6774;48.208;10.766;2023-05-20T10:57:17;95364.59;;;23.97;53.71
13407;BME280;6774;48.208;10.766;2023-05-20T10:59:45;95358.22;;;23.63;54.33
13407;BME280;6774;48.208;10.766;2023-05-20T11:02:14;95359.00;;;23.58;54.74
13407;BME280;6774;48.208;10.766;2023-05-20T11:04:44;95351.69;;;23.84;54.50
13407;BME280;6774;48.208;10.766;2023-05-20T11:07:12;95350.53;;;24.05;55.54
13407;BME280;6774;48.208;10.766;2023-05-20T11:09:50;95340.44;;;24.36;54.64
13407;BME280;6774;48.208;10.766;2023-05-20T11:12:18;95337.09;;;24.55;53.08
13407;BME280;6774;48.208;10.766;2023-05-20T11:14:47;95342.59;;;24.79;53.42
13407;BME280;6774;48.208;10.766;2023-05-20T11:17:15;95332.31;;;24.42;53.19
13407;BME280;6774;48.208;10.766;2023-05-20T11:19:46;95330.50;;;24.22;53.70
13407;BME280;6774;48.208;10.766;2023-05-20T11:22:14;95328.88;;;24.26;52.88
13407;BME280;6774;48.208;10.766;2023-05-20T11:24:42;95341.59;;;24.10;53.53
13407;BME280;6774;48.208;10.766;2023-05-20T11:27:10;95331.00;;;23.69;54.20
13407;BME280;6774;48.208;10.766;2023-05-20T11:29:38;95325.06;;;23.72;55.50
13407;BME280;6774;48.208;10.766;2023-05-20T11:32:07;95333.34;;;23.91;55.32
13407;BME280;6774;48.208;10.766;2023-05-20T11:34:35;95319.91;;;23.76;55.46
13407;BME280;6774;48.208;10.766;2023-05-20T11:37:07;95320.47;;;23.73;54.36
13407;BME280;6774;48.208;10.766;2023-05-20T11:39:36;95321.03;;;23.70;54.40
13407;BME280;6774;48.208;10.766;2023-05-20T11:42:04;95315.13;;;23.52;56.02
13407;BME280;6774;48.208;10.766;2023-05-20T11:44:32;95315.22;;;24.07;55.52
13407;BME280;6774;48.208;10.766;2023-05-20T11:47:01;95307.69;;;24.53;55.77
13407;BME280;6774;48.208;10.766;2023-05-20T11:49:29;95312.72;;;25.04;55.28
13407;BME280;6774;48.208;10.766;2023-05-20T11:51:57;95305.19;;;25.30;52.73
13407;BME280;6774;48.208;10.766;2023-05-20T11:54:26;95299.63;;;25.69;54.21
13407;BME280;6774;48.208;10.766;2023-05-20T11:56:54;95304.31;;;25.64;51.29
13407;BME280;6774;48.208;10.766;2023-05-20T11:59:23;95306.75;;;25.60;52.04
13407;BME280;6774;48.208;10.766;2023-05-20T12:01:50;95305.78;;;25.51;51.78
13407;BME280;6774;48.208;10.766;2023-05-20T12:04:18;95309.16;;;25.38;52.80
13407;BME280;6774;48.208;10.766;2023-05-20T12:06:47;95297.63;;;25.56;52.03
13407;BME280;6774;48.208;10.766;2023-05-20T12:09:15;95311.97;;;25.28;51.72
13407;BME280;6774;48.208;10.766;2023-05-20T12:11:44;95304.66;;;24.99;51.41
13407;BME280;6774;48.208;10.766;2023-05-20T12:14:12;95294.75;;;24.89;52.66
13407;BME280;6774;48.208;10.766;2023-05-20T12:16:39;95306.25;;;25.00;52.38
13407;BME280;6774;48.208;10.766;2023-05-20T12:19:07;95297.63;;;24.98;52.73
13407;BME280;6774;48.208;10.766;2023-05-20T12:21:35;95283.56;;;25.06;53.04
13407;BME280;6774;48.208;10.766;2023-05-20T12:24:03;95284.00;;;25.13;53.84
13407;BME280;6774;48.208;10.766;2023-05-20T12:26:32;95281.28;;;25.18;54.12
13407;BME280;6774;48.208;10.766;2023-05-20T12:29:02;95280.69;;;25.21;52.58
13407;BME280;6774;48.208;10.766;2023-05-20T12:31:30;95278.16;;;25.06;52.29
13407;BME280;6774;48.208;10.766;2023-05-20T12:34:00;95280.94;;;25.25;54.20
13407;BME280;6774;48.208;10.766;2023-05-20T12:36:28;95282.91;;;25.14;52.48
13407;BME280;6774;48.208;10.766;2023-05-20T12:38:57;95284.75;;;25.24;52.76
13407;BME280;6774;48.208;10.766;2023-05-20T12:41:24;95272.56;;;25.27;54.07
13407;BME280;6774;48.208;10.766;2023-05-20T12:43:52;95275.78;;;25.52;53.94
13407;BME280;6774;48.208;10.766;2023-05-20T12:46:21;95273.81;;;25.58;54.20
13407;BME280;6774;48.208;10.766;2023-05-20T12:48:49;95271.88;;;25.64;53.27
13407;BME280;6774;48.208;10.766;2023-05-20T12:51:17;95262.72;;;25.60;52.80
13407;BME280;6774;48.208;10.766;2023-05-20T12:53:46;95246.91;;;25.48;52.62
13407;BME280;6774;48.208;10.766;2023-05-20T12:56:14;95245.75;;;25.30;53.30
13407;BME280;6774;48.208;10.766;2023-05-20T12:58:42;95251.47;;;25.52;52.26
13407;BME280;6774;48.208;10.766;2023-05-20T13:01:10;95240.25;;;25.64;53.60
13407;BME280;6774;48.208;10.766;2023-05-20T13:03:39;95240.66;;;25.76;52.69
13407;BME280;6774;48.208;10.766;2023-05-20T13:06:07;95237.78;;;25.92;52.22
13407;BME280;6774;48.208;10.766;2023-05-20T13:08:35;95236.66;;;25.93;51.46
13407;BME280;6774;48.208;10.766;2023-05-20T13:11:02;95243.72;;;25.70;51.10